createdAt,value
2023-01-05T00:01:05.812Z,100247.66
2023-01-05T00:03:32.753Z,100243.03
2023-01-05T00:06:03.947Z,100247.22
2023-01-05T00:08:36.698Z,100253.75
2023-01-05T00:11:30.446Z,100256.03
2023-01-05T00:14:15.483Z,100263.59
2023-01-05T00:17:00.652Z,100264.56
2023-01-05T00:19:45.743Z,100263.41
2023-01-05T00:22:38.526Z,100265.16
2023-01-05T00:25:12.700Z,100259.50
2023-01-05T00:27:41.130Z,100239.44
2023-01-05T00:30:09.308Z,100262.28
2023-01-05T00:32:35.854Z,100269.63
2023-01-05T00:35:02.715Z,100261.59
2023-01-05T00:37:32.709Z,100259.94
2023-01-05T00:39:59.645Z,100270.75
2023-01-05T00:42:27.016Z,100255.41
2023-01-05T00:44:53.656Z,100256.97
2023-01-05T00:47:20.183Z,100256.34
2023-01-05T00:49:46.751Z,100268.63
2023-01-05T00:52:13.334Z,100261.41
2023-01-05T00:54:39.915Z,100264.03
2023-01-05T00:57:07.389Z,100268.38
2023-01-05T00:59:35.320Z,100258.00
2023-01-05T01:02:01.998Z,100258.84
2023-01-05T01:04:30.935Z,100251.47
2023-01-05T01:06:57.503Z,100254.16
2023-01-05T01:09:24.007Z,100266.13
2023-01-05T01:14:17.389Z,100259.72
2023-01-05T01:16:44.023Z,100258.94
2023-01-05T01:19:15.959Z,100268.25
2023-01-05T01:21:42.974Z,100258.75
2023-01-05T01:24:15.581Z,100269.66
2023-01-05T01:26:42.128Z,100267.81
2023-01-05T01:29:08.672Z,100270.44
2023-01-05T01:31:35.676Z,100258.94
2023-01-05T01:34:02.184Z,100260.06
2023-01-05T01:36:28.752Z,100258.41
2023-01-05T01:38:55.381Z,100253.06
2023-01-05T01:41:22.029Z,100256.22
2023-01-05T01:43:49.630Z,100251.97
2023-01-05T01:46:19.720Z,100248.47
2023-01-05T01:48:59.456Z,100252.66
2023-01-05T01:51:43.576Z,100265.28
2023-01-05T01:54:13.690Z,100257.78
2023-01-05T01:56:44.362Z,100267.03
2023-01-05T01:59:11.714Z,100258.56
2023-01-05T02:01:38.327Z,100261.63
2023-01-05T02:04:05.306Z,100261.63
2023-01-05T02:06:31.856Z,100264.06
2023-01-05T02:08:58.387Z,100254.81
2023-01-05T02:11:54.425Z,100253.16
2023-01-05T02:15:12.776Z,100255.06
2023-01-05T02:18:06.976Z,100250.03
2023-01-05T02:20:39.812Z,100237.72
2023-01-05T02:23:21.074Z,100242.72
2023-01-05T02:26:10.776Z,100247.94
2023-01-05T02:29:13.317Z,100235.75
2023-01-05T02:31:48.635Z,100252.16
2023-01-05T02:34:36.611Z,100241.34
2023-01-05T02:37:23.036Z,100246.09
2023-01-05T02:39:56.199Z,100237.66
2023-01-05T02:42:25.140Z,100222.22
2023-01-05T02:44:52.068Z,100228.91
2023-01-05T02:47:30.592Z,100225.88
2023-01-05T02:50:11.949Z,100225.28
2023-01-05T02:52:49.612Z,100242.25
2023-01-05T02:55:20.189Z,100239.56
2023-01-05T02:57:56.363Z,100238.44
2023-01-05T03:00:25.975Z,100234.25
2023-01-05T03:02:56.686Z,100242.72
2023-01-05T03:05:26.751Z,100246.03
2023-01-05T03:08:06.808Z,100254.31
2023-01-05T03:11:05.732Z,100251.28
2023-01-05T03:13:52.887Z,100240.47
2023-01-05T03:16:24.610Z,100241.69
2023-01-05T03:19:12.039Z,100244.38
2023-01-05T03:21:57.267Z,100236.78
2023-01-05T03:24:43.024Z,100246.03
2023-01-05T03:27:31.212Z,100226.25
2023-01-05T03:30:18.874Z,100230.06
2023-01-05T03:33:08.193Z,100237.78
2023-01-05T03:35:39.924Z,100241.22
2023-01-05T03:38:18.728Z,100242.09
2023-01-05T03:40:47.299Z,100237.13
2023-01-05T03:43:14.302Z,100240.69
2023-01-05T03:45:43.819Z,100228.41
2023-01-05T03:48:15.872Z,100236.16
2023-01-05T03:50:42.386Z,100242.44
2023-01-05T03:53:13.150Z,100237.03
2023-01-05T03:55:40.561Z,100235.25
2023-01-05T03:58:07.625Z,100254.88
2023-01-05T04:00:35.170Z,100253.38
2023-01-05T04:03:09.176Z,100246.16
2023-01-05T04:05:36.213Z,100251.91
2023-01-05T04:08:04.084Z,100250.41
2023-01-05T04:10:32.345Z,100270.47
2023-01-05T04:13:00.684Z,100275.97
2023-01-05T04:15:27.581Z,100272.38
2023-01-05T04:17:55.108Z,100264.91
2023-01-05T04:20:21.663Z,100263.22
2023-01-05T04:22:48.209Z,100270.75
2023-01-05T04:25:18.427Z,100271.44
2023-01-05T04:27:45.020Z,100275.63
2023-01-05T04:30:12.637Z,100268.59
2023-01-05T04:32:39.158Z,100284.53
2023-01-05T04:35:11.569Z,100284.47
2023-01-05T04:37:39.822Z,100292.88
2023-01-05T04:40:07.832Z,100303.63
2023-01-05T04:42:42.253Z,100295.78
2023-01-05T04:45:10.588Z,100295.09
2023-01-05T04:47:37.722Z,100303.31
2023-01-05T04:50:04.785Z,100301.91
2023-01-05T04:52:31.745Z,100308.38
2023-01-05T04:54:58.563Z,100318.50
2023-01-05T04:57:27.471Z,100319.81
2023-01-05T04:59:54.098Z,100315.53
2023-01-05T05:02:20.894Z,100326.19
2023-01-05T05:04:49.528Z,100319.19
2023-01-05T05:07:16.689Z,100320.78
2023-01-05T05:09:43.291Z,100321.47
2023-01-05T05:12:10.774Z,100323.47
2023-01-05T05:14:38.562Z,100326.19
2023-01-05T05:17:05.744Z,100324.50
2023-01-05T05:19:32.876Z,100325.22
2023-01-05T05:21:59.864Z,100321.28
2023-01-05T05:24:27.651Z,100327.91
2023-01-05T05:26:54.272Z,100311.25
2023-01-05T05:29:20.860Z,100323.28
2023-01-05T05:31:47.515Z,100324.16
2023-01-05T05:34:14.260Z,100320.66
2023-01-05T05:36:40.860Z,100328.34
2023-01-05T05:39:07.491Z,100328.94
2023-01-05T05:41:34.081Z,100321.63
2023-01-05T05:44:02.491Z,100313.53
2023-01-05T05:46:29.795Z,100313.44
2023-01-05T05:48:57.243Z,100325.28
2023-01-05T05:51:24.354Z,100319.91
2023-01-05T05:53:51.503Z,100321.47
2023-01-05T05:56:18.274Z,100320.84
2023-01-05T05:58:44.888Z,100334.34
2023-01-05T06:01:11.694Z,100342.81
2023-01-05T06:03:38.356Z,100341.50
2023-01-05T06:06:05.104Z,100342.25
2023-01-05T06:08:31.827Z,100359.59
2023-01-05T06:10:58.697Z,100354.19
2023-01-05T06:13:25.612Z,100356.47
2023-01-05T06:15:52.405Z,100362.72
2023-01-05T06:18:19.142Z,100366.31
2023-01-05T06:20:45.882Z,100379.81
2023-01-05T06:23:12.529Z,100368.34
2023-01-05T06:25:39.106Z,100386.88
2023-01-05T06:28:05.680Z,100375.00
2023-01-05T06:30:32.271Z,100378.06
2023-01-05T06:32:58.833Z,100379.63
2023-01-05T06:35:25.375Z,100388.66
2023-01-05T06:37:51.910Z,100389.47
2023-01-05T06:40:18.420Z,100392.94
2023-01-05T06:42:44.975Z,100399.81
2023-01-05T06:45:14.047Z,100406.25
2023-01-05T06:47:40.659Z,100405.91
2023-01-05T06:50:07.627Z,100400.50
2023-01-05T06:52:36.802Z,100413.09
2023-01-05T06:55:04.225Z,100406.84
2023-01-05T06:57:30.770Z,100422.53
2023-01-05T06:59:57.282Z,100419.72
2023-01-05T07:02:23.878Z,100422.19
2023-01-05T07:04:50.385Z,100435.69
2023-01-05T07:07:16.953Z,100436.59
2023-01-05T07:09:45.083Z,100427.44
2023-01-05T07:12:11.634Z,100432.09
2023-01-05T07:14:38.426Z,100432.09
2023-01-05T07:17:05.301Z,100433.66
2023-01-05T07:19:31.845Z,100419.44
2023-01-05T07:21:58.645Z,100425.31
2023-01-05T07:24:25.210Z,100430.00
2023-01-05T07:26:51.827Z,100433.84
2023-01-05T07:29:18.383Z,100449.78
2023-01-05T07:31:44.932Z,100438.28
2023-01-05T07:34:11.626Z,100445.97
2023-01-05T07:36:38.139Z,100455.53
2023-01-05T07:39:04.687Z,100445.50
2023-01-05T07:41:31.187Z,100451.75
2023-01-05T07:43:57.690Z,100460.75
2023-01-05T07:46:24.257Z,100460.41
2023-01-05T07:48:51.082Z,100466.69
2023-01-05T07:51:18.180Z,100477.16
2023-01-05T07:53:44.939Z,100483.25
2023-01-05T07:56:12.270Z,100484.50
2023-01-05T07:58:38.828Z,100491.44
2023-01-05T08:01:07.159Z,100493.47
2023-01-05T08:03:34.417Z,100490.56
2023-01-05T08:06:15.310Z,100500.91
2023-01-05T08:08:42.095Z,100504.38
2023-01-05T08:11:10.625Z,100508.91
2023-01-05T08:13:55.726Z,100505.59
2023-01-05T08:16:22.866Z,100512.34
2023-01-05T08:18:49.419Z,100517.50
2023-01-05T08:21:15.927Z,100516.28
2023-01-05T08:23:42.413Z,100532.22
2023-01-05T08:26:15.706Z,100530.22
2023-01-05T08:28:42.636Z,100529.06
2023-01-05T08:31:13.751Z,100543.81
2023-01-05T08:33:40.195Z,100543.47
2023-01-05T08:36:12.446Z,100543.75
2023-01-05T08:38:38.965Z,100542.16
2023-01-05T08:41:05.821Z,100565.38
2023-01-05T08:43:32.451Z,100537.78
2023-01-05T08:45:58.976Z,100551.13
2023-01-05T08:48:25.538Z,100554.72
2023-01-05T08:50:52.124Z,100563.69
2023-01-05T08:53:18.626Z,100573.53
2023-01-05T08:55:45.180Z,100559.53
2023-01-05T08:58:11.738Z,100578.59
2023-01-05T09:00:38.317Z,100579.59
2023-01-05T09:03:04.986Z,100565.53
2023-01-05T09:05:32.229Z,100572.69
2023-01-05T09:07:58.747Z,100573.91
2023-01-05T09:10:25.302Z,100588.66
2023-01-05T09:12:51.840Z,100586.72
2023-01-05T09:15:19.039Z,100602.47
2023-01-05T09:17:45.766Z,100598.47
2023-01-05T09:20:12.353Z,100588.41
2023-01-05T09:22:39.446Z,100613.03
2023-01-05T09:25:06.349Z,100594.69
2023-01-05T09:27:33.051Z,100616.66
2023-01-05T09:29:59.692Z,100607.34
2023-01-05T09:32:26.261Z,100616.47
2023-01-05T09:34:52.835Z,100621.97
2023-01-05T09:37:19.352Z,100626.41
2023-01-05T09:39:47.101Z,100620.19
2023-01-05T09:42:19.681Z,100636.69
2023-01-05T09:44:52.680Z,100641.03
2023-01-05T09:47:34.902Z,100636.47
2023-01-05T09:50:01.475Z,100638.66
2023-01-05T09:52:30.479Z,100651.03
2023-01-05T09:55:03.686Z,100646.38
2023-01-05T09:57:30.729Z,100659.38
2023-01-05T09:59:59.497Z,100655.91
2023-01-05T10:02:34.128Z,100661.63
2023-01-05T10:05:02.100Z,100672.78
2023-01-05T10:07:42.895Z,100679.31
2023-01-05T10:10:18.736Z,100663.28
2023-01-05T10:13:04.442Z,100675.06
2023-01-05T10:15:43.751Z,100669.88
2023-01-05T10:18:16.486Z,100675.84
2023-01-05T10:20:54.667Z,100690.88
2023-01-05T10:23:45.466Z,100679.38
2023-01-05T10:26:26.755Z,100686.91
2023-01-05T10:29:03.551Z,100694.34
2023-01-05T10:31:55.519Z,100688.28
2023-01-05T10:34:24.095Z,100706.31
2023-01-05T10:37:08.375Z,100713.78
2023-01-05T10:39:51.003Z,100694.53
2023-01-05T10:42:45.486Z,100701.75
2023-01-05T10:45:15.360Z,100713.19
2023-01-05T10:47:42.326Z,100707.00
2023-01-05T10:50:26.832Z,100694.66
2023-01-05T10:52:54.067Z,100710.16
2023-01-05T10:55:21.892Z,100710.66
2023-01-05T10:57:48.425Z,100710.88
2023-01-05T11:00:18.123Z,100707.94
2023-01-05T11:03:03.077Z,100711.75
2023-01-05T11:05:48.367Z,100716.63
2023-01-05T11:08:16.060Z,100721.91
2023-01-05T11:11:00.150Z,100723.50
2023-01-05T11:13:31.252Z,100713.13
2023-01-05T11:16:09.108Z,100721.22
2023-01-05T11:18:42.207Z,100728.09
2023-01-05T11:21:16.363Z,100726.75
2023-01-05T11:23:49.007Z,100730.47
2023-01-05T11:26:18.540Z,100727.31
2023-01-05T11:29:03.106Z,100734.28
2023-01-05T11:31:57.883Z,100731.06
2023-01-05T11:34:36.194Z,100736.31
2023-01-05T11:37:08.499Z,100750.28
2023-01-05T11:39:45.849Z,100749.84
2023-01-05T11:42:26.036Z,100746.34
2023-01-05T11:44:58.956Z,100757.50
2023-01-05T11:47:43.954Z,100754.34
2023-01-05T11:50:14.123Z,100768.75
2023-01-05T11:52:43.021Z,100769.19
2023-01-05T11:55:30.936Z,100760.31
2023-01-05T11:58:14.300Z,100770.34
2023-01-05T12:00:53.412Z,100769.66
2023-01-05T12:03:34.758Z,100778.34
2023-01-05T12:06:12.676Z,100772.69
2023-01-05T12:09:12.086Z,100790.72
2023-01-05T12:11:57.750Z,100795.78
2023-01-05T12:14:47.485Z,100794.22
2023-01-05T12:17:17.022Z,100809.63
2023-01-05T12:20:00.766Z,100814.47
2023-01-05T12:22:54.569Z,100807.47
2023-01-05T12:25:45.248Z,100824.41
2023-01-05T12:28:40.543Z,100835.97
2023-01-05T12:34:20.319Z,100844.78
2023-01-05T12:37:02.452Z,100838.94
2023-01-05T12:39:56.973Z,100855.91
2023-01-05T12:42:53.211Z,100857.97
2023-01-05T12:45:39.214Z,100850.06
2023-01-05T12:48:38.048Z,100848.25
2023-01-05T12:51:18.827Z,100856.81
2023-01-05T12:54:00.844Z,100869.88
2023-01-05T12:56:37.685Z,100865.75
2023-01-05T12:59:18.449Z,100885.91
2023-01-05T13:01:52.521Z,100866.28
2023-01-05T13:04:43.045Z,100886.13
2023-01-05T13:07:20.373Z,100885.66
2023-01-05T13:10:02.110Z,100894.19
2023-01-05T13:12:29.534Z,100902.88
2023-01-05T13:15:06.509Z,100888.78
2023-01-05T13:17:35.144Z,100890.59
2023-01-05T13:20:39.225Z,100912.16
2023-01-05T13:23:16.764Z,100916.13
2023-01-05T13:26:03.146Z,100917.09
2023-01-05T13:28:31.927Z,100914.63
2023-01-05T13:31:42.101Z,100921.13
2023-01-05T13:34:21.046Z,100934.31
2023-01-05T13:37:21.313Z,100939.19
2023-01-05T13:40:22.256Z,100947.41
2023-01-05T13:43:16.575Z,100962.41
2023-01-05T13:46:05.002Z,100952.16
2023-01-05T13:49:03.399Z,100968.63
2023-01-05T13:51:49.254Z,100967.41
2023-01-05T13:54:18.177Z,100964.06
2023-01-05T13:56:46.782Z,100969.66
2023-01-05T13:59:35.292Z,100974.03
2023-01-05T14:02:24.569Z,100979.19
2023-01-05T14:04:51.219Z,100990.75
2023-01-05T14:07:18.248Z,100988.47
2023-01-05T14:09:55.657Z,100995.69
2023-01-05T14:12:25.494Z,101000.19
2023-01-05T14:15:12.267Z,101004.38
2023-01-05T14:17:51.192Z,101005.25
2023-01-05T14:20:34.971Z,101004.31
2023-01-05T14:23:23.770Z,101017.25
2023-01-05T14:25:52.862Z,101032.31
2023-01-05T14:28:28.565Z,101034.31
2023-01-05T14:31:19.300Z,101030.56
2023-01-05T14:33:52.144Z,101042.50
2023-01-05T14:36:30.374Z,101053.72
2023-01-05T14:39:02.152Z,101058.16
2023-01-05T14:41:29.846Z,101070.88
2023-01-05T14:44:17.368Z,101071.66
2023-01-05T14:46:49.281Z,101079.63
2023-01-05T14:49:35.032Z,101072.00
2023-01-05T14:52:04.430Z,101077.06
2023-01-05T14:55:05.614Z,101086.47
2023-01-05T14:57:33.696Z,101092.28
2023-01-05T15:00:11.402Z,101115.81
2023-01-05T15:02:46.006Z,101128.03
2023-01-05T15:05:16.610Z,101120.56
2023-01-05T15:08:08.046Z,101141.44
2023-01-05T15:11:32.633Z,101152.84
2023-01-05T15:14:32.534Z,101155.69
2023-01-05T15:17:22.586Z,101174.19
2023-01-05T15:20:28.282Z,101178.63
2023-01-05T15:23:28.870Z,101185.16
2023-01-05T15:26:27.804Z,101191.50
2023-01-05T15:29:12.910Z,101197.53
2023-01-05T15:32:02.190Z,101187.38
2023-01-05T15:34:46.261Z,101203.84
2023-01-05T15:37:26.085Z,101213.06
2023-01-05T15:39:54.984Z,101214.63
2023-01-05T15:42:28.986Z,101223.53
2023-01-05T15:44:56.526Z,101216.41
2023-01-05T15:47:25.927Z,101227.19
2023-01-05T15:49:56.447Z,101228.31
2023-01-05T15:52:35.775Z,101235.63
2023-01-05T15:55:14.302Z,101234.63
2023-01-05T15:57:41.314Z,101240.81
2023-01-05T16:00:20.450Z,101245.25
2023-01-05T16:02:46.994Z,101249.06
2023-01-05T16:05:16.509Z,101250.03
2023-01-05T16:07:45.325Z,101254.91
2023-01-05T16:10:51.776Z,101260.63
2023-01-05T16:13:26.920Z,101259.03
2023-01-05T16:15:55.061Z,101259.53
2023-01-05T16:18:29.089Z,101270.34
2023-01-05T16:20:56.629Z,101262.09
2023-01-05T16:23:32.490Z,101272.69
2023-01-05T16:25:59.771Z,101281.41
2023-01-05T16:28:26.809Z,101287.63
2023-01-05T16:30:54.196Z,101296.50
2023-01-05T16:33:23.665Z,101298.41
2023-01-05T16:35:53.002Z,101304.25
2023-01-05T16:38:30.177Z,101310.91
2023-01-05T16:41:22.801Z,101313.22
2023-01-05T16:43:54.914Z,101311.53
2023-01-05T16:46:25.285Z,101318.84
2023-01-05T16:48:58.396Z,101321.69
2023-01-05T16:51:37.107Z,101311.38
2023-01-05T16:54:12.663Z,101319.91
2023-01-05T16:56:46.303Z,101321.38
2023-01-05T16:59:40.739Z,101324.22
2023-01-05T17:02:27.657Z,101324.84
2023-01-05T17:04:54.285Z,101326.44
2023-01-05T17:07:20.965Z,101340.88
2023-01-05T17:09:47.689Z,101339.16
2023-01-05T17:12:14.254Z,101338.03
2023-01-05T17:14:41.465Z,101332.09
2023-01-05T17:17:12.323Z,101345.56
2023-01-05T17:19:39.045Z,101347.59
2023-01-05T17:22:06.951Z,101347.94
2023-01-05T17:24:35.728Z,101354.75
2023-01-05T17:27:02.575Z,101362.06
2023-01-05T17:29:31.575Z,101357.13
2023-01-05T17:31:58.393Z,101365.09
2023-01-05T17:34:25.079Z,101368.25
2023-01-05T17:36:54.857Z,101363.38
2023-01-05T17:39:22.078Z,101370.16
2023-01-05T17:41:48.988Z,101374.28
2023-01-05T17:44:16.360Z,101375.34
2023-01-05T17:46:45.179Z,101376.78
2023-01-05T17:49:14.845Z,101384.69
2023-01-05T17:51:41.373Z,101378.47
2023-01-05T17:54:07.870Z,101378.34
2023-01-05T17:56:34.419Z,101391.97
2023-01-05T17:59:00.942Z,101389.13
2023-01-05T18:01:27.522Z,101393.28
2023-01-05T18:03:54.087Z,101398.16
2023-01-05T18:06:20.648Z,101406.72
2023-01-05T18:08:47.254Z,101410.19
2023-01-05T18:11:14.796Z,101415.56
2023-01-05T18:16:11.650Z,101421.16
2023-01-05T18:18:38.461Z,101423.06
2023-01-05T18:21:05.742Z,101431.63
2023-01-05T18:23:32.786Z,101430.84
2023-01-05T18:26:07.123Z,101423.88
2023-01-05T18:28:33.878Z,101430.78
2023-01-05T18:31:01.249Z,101432.84
2023-01-05T18:33:28.296Z,101436.66
2023-01-05T18:38:21.724Z,101434.38
2023-01-05T18:40:49.705Z,101437.22
2023-01-05T18:43:16.671Z,101432.44
2023-01-05T18:45:43.289Z,101444.88
2023-01-05T18:48:09.899Z,101440.75
2023-01-05T18:50:41.017Z,101448.38
2023-01-05T18:53:07.726Z,101447.84
2023-01-05T18:55:34.263Z,101451.97
2023-01-05T18:58:00.831Z,101456.06
2023-01-05T19:00:27.409Z,101466.53
2023-01-05T19:02:53.942Z,101463.84
2023-01-05T19:05:20.491Z,101458.59
2023-01-05T19:07:50.966Z,101465.88
2023-01-05T19:10:17.585Z,101474.63
2023-01-05T19:12:44.094Z,101474.03
2023-01-05T19:15:11.076Z,101468.13
2023-01-05T19:17:37.660Z,101476.41
2023-01-05T19:20:04.614Z,101483.09
2023-01-05T19:22:31.332Z,101484.84
2023-01-05T19:24:58.850Z,101485.03
2023-01-05T19:27:28.138Z,101485.97
2023-01-05T19:29:54.757Z,101489.75
2023-01-05T19:32:21.320Z,101491.34
2023-01-05T19:34:47.883Z,101495.75
2023-01-05T19:37:14.550Z,101500.84
2023-01-05T19:39:41.185Z,101496.34
2023-01-05T19:42:07.916Z,101491.59
2023-01-05T19:44:34.472Z,101493.78
2023-01-05T19:47:01.028Z,101498.50
2023-01-05T19:49:28.336Z,101500.22
2023-01-05T19:51:55.015Z,101506.81
2023-01-05T19:54:22.714Z,101506.06
2023-01-05T19:56:49.526Z,101507.44
2023-01-05T19:59:18.032Z,101515.03
2023-01-05T20:01:45.076Z,101525.44
2023-01-05T20:04:11.658Z,101530.22
2023-01-05T20:06:40.827Z,101528.59
2023-01-05T20:09:10.676Z,101538.06
2023-01-05T20:11:39.865Z,101536.50
2023-01-05T20:14:24.756Z,101537.22
2023-01-05T20:16:56.809Z,101545.47
2023-01-05T20:19:26.677Z,101549.28
2023-01-05T20:21:53.694Z,101555.06
2023-01-05T20:24:25.257Z,101549.00
2023-01-05T20:26:54.152Z,101551.69
2023-01-05T20:29:21.723Z,101558.69
2023-01-05T20:31:54.184Z,101559.88
2023-01-05T20:34:22.060Z,101570.66
2023-01-05T20:36:49.742Z,101561.47
2023-01-05T20:39:18.627Z,101573.63
2023-01-05T20:41:47.197Z,101576.03
2023-01-05T20:44:14.529Z,101579.50
2023-01-05T20:46:43.548Z,101580.81
2023-01-05T20:49:10.493Z,101578.09
2023-01-05T20:51:37.974Z,101584.88
2023-01-05T20:54:06.013Z,101587.59
2023-01-05T20:56:38.365Z,101591.38
2023-01-05T20:59:30.143Z,101591.47
2023-01-05T21:01:57.391Z,101594.25
2023-01-05T21:04:25.215Z,101590.91
2023-01-05T21:06:54.271Z,101597.47
2023-01-05T21:09:22.207Z,101597.84
2023-01-05T21:11:48.774Z,101601.84
2023-01-05T21:14:15.799Z,101604.41
2023-01-05T21:16:46.040Z,101607.69
2023-01-05T21:19:17.720Z,101612.66
2023-01-05T21:21:48.970Z,101612.53
2023-01-05T21:24:15.899Z,101617.91
2023-01-05T21:26:42.596Z,101618.47
2023-01-05T21:29:10.871Z,101618.59
2023-01-05T21:31:38.079Z,101622.97
2023-01-05T21:34:04.734Z,101620.06
2023-01-05T21:36:32.620Z,101614.47
2023-01-05T21:39:03.607Z,101618.56
2023-01-05T21:41:53.872Z,101618.63
2023-01-05T21:44:21.361Z,101633.72
2023-01-05T21:46:49.150Z,101621.19
2023-01-05T21:49:16.908Z,101623.13
2023-01-05T21:52:02.276Z,101627.47
2023-01-05T21:54:47.423Z,101625.47
2023-01-05T21:57:14.019Z,101629.56
2023-01-05T21:59:41.127Z,101624.47
2023-01-05T22:02:07.798Z,101627.16
2023-01-05T22:04:34.478Z,101632.53
2023-01-05T22:07:01.276Z,101623.50
2023-01-05T22:09:27.808Z,101618.41
2023-01-05T22:11:54.495Z,101622.31
2023-01-05T22:14:21.038Z,101627.00
2023-01-05T22:16:47.576Z,101637.59
2023-01-05T22:19:14.231Z,101638.22
2023-01-05T22:21:40.811Z,101633.19
2023-01-05T22:24:08.968Z,101630.56
2023-01-05T22:26:35.759Z,101634.94
2023-01-05T22:29:02.308Z,101635.22
2023-01-05T22:31:30.075Z,101642.22
2023-01-05T22:33:59.304Z,101644.97
2023-01-05T22:36:27.769Z,101650.69
2023-01-05T22:38:54.935Z,101648.06
2023-01-05T22:41:24.145Z,101651.28
2023-01-05T22:43:50.757Z,101657.25
2023-01-05T22:46:22.941Z,101658.28
2023-01-05T22:48:51.374Z,101651.09
2023-01-05T22:51:20.056Z,101649.00
2023-01-05T22:53:47.291Z,101653.31
2023-01-05T22:56:15.397Z,101654.47
2023-01-05T22:58:42.340Z,101651.00
2023-01-05T23:01:21.398Z,101651.63
2023-01-05T23:03:48.953Z,101649.50
2023-01-05T23:06:15.480Z,101640.66
2023-01-05T23:08:42.782Z,101636.38
2023-01-05T23:11:20.033Z,101640.97
2023-01-05T23:13:47.359Z,101648.53
2023-01-05T23:16:14.542Z,101649.88
2023-01-05T23:18:41.489Z,101655.53
2023-01-05T23:21:09.976Z,101670.06
2023-01-05T23:23:37.642Z,101667.69
2023-01-05T23:26:06.218Z,101664.50
2023-01-05T23:28:33.351Z,101669.03
2023-01-05T23:31:00.535Z,101658.31
2023-01-05T23:33:29.449Z,101658.31
2023-01-05T23:35:56.285Z,101655.66
2023-01-05T23:38:24.337Z,101650.81
2023-01-05T23:40:52.851Z,101652.16
2023-01-05T23:43:21.529Z,101654.78
2023-01-05T23:45:48.336Z,101640.00
2023-01-05T23:48:15.440Z,101634.09
2023-01-05T23:50:47.029Z,101635.94
2023-01-05T23:53:14.147Z,101625.22
2023-01-05T23:55:41.208Z,101632.97
2023-01-05T23:58:08.675Z,101623.34
